East Greenbush, NY (12061)

5:26 PM EDT on July 05, 2015 (GMT -0400)
Town Park | | Change Station
CLOSE
Current Station
Personal Weather Station
Location: East Greenbush, NY
Elevation: 554 ft
Nearby Weather Stations

Elev 554 ft 42.60 °N, 73.67 °W | Updated 3 seconds ago

Partly Cloudy
Partly Cloudy
80.2 °F
Feels Like 82 °F
N
6.4
Wind Variable Wind from SW
Gusts 6.8 mph

Today
High -- | Low -- °F
--% Chance of Precip.
Yesterday
High -- | Low -- °F
Precip. -- in
5:23 AM 8:35 PM
Waning Gibbous, 82% visible
Pressure 30.08 in
Visibility 10.0 miles
Clouds Few 6000 ft
Scattered Clouds 25000 ft
Heat Index 82 °F
Dew Point 65 °F
Humidity 60%
Rainfall 0.00 in
Snow Depth Not available.
UV 4 out of 12
Pollen 5.20 out of 12
Air Quality Not available.
Flu Activity Not available.
METAR KALB 052051Z 29006KT 10SM FEW060 SCT250 28/13 A3008 RMK AO2 SLP186 T02780133 58008

More Conditions Fewer Conditions

Pressure 30.08 in
Visibility 10.0 miles
Clouds Few 6000 ft
Scattered Clouds 25000 ft
Heat Index 82 °F
Dew Point 65 °F
Humidity 60%
Rainfall 0.00 in
Snow Depth Not available.
UV 4 out of 12
Pollen 5.20 out of 12
Air Quality Not available.
Flu Activity Not available.
METAR KALB 052051Z 29006KT 10SM FEW060 SCT250 28/13 A3008 RMK AO2 SLP186 T02780133 58008

More Conditions Fewer Conditions

10-Day Weather Forecast

×

Almanac

Astronomy

Jul. 05, 2015 Rise Set
Actual Time
Civil Twilight
Nautical Twilight
Astronomical Twilight
Moon
Length of Visible Light
Length of Day
Tomorrow will be .
, % of the Moon is Illuminated

Today's Extremes

State Highs State Lows

Community

WunderPhotos

Upload Photos

1,835,397 photos uploaded!

WunderBlogs® & News

Nearby

Air Quality

  Air Quality AQ Index Pollutant
Not available.

Snow Depth

Station Depth Elevation

Earthquake Activity

City Distance Mag. Time & Date
Minimum magnitude displayed is 2.5.

Coastal Water Temperatures

Place Temperature

Stations

Nearby Weather Stations

Station Location Temp. Windchill Dew Point Humidity Wind Precip. Elev Updated Type